sensor_id;sensor_type;location;lat;lon;timestamp;pressure;altitude;pressure_sealevel;temperature;humidity
55317;BME280;41178;48.956;8.130;2022-09-09T00:03:12;99326.56;;;23.68;48.17
55317;BME280;41178;48.956;8.130;2022-09-09T00:09:28;99297.81;;;22.56;50.41
55317;BME280;41178;48.956;8.130;2022-09-09T00:11:40;99327.75;;;21.82;51.30
55317;BME280;41178;48.956;8.130;2022-09-09T00:13:48;99247.88;;;23.41;49.20
55317;BME280;41178;48.956;8.130;2022-09-09T00:18:33;99307.34;;;22.81;49.76
55317;BME280;41178;48.956;8.130;2022-09-09T00:23:25;99322.53;;;22.09;51.50
55317;BME280;41178;48.956;8.130;2022-09-09T00:25:33;99250.28;;;23.37;49.63
55317;BME280;41178;48.956;8.130;2022-09-09T00:27:45;99297.63;;;22.63;50.53
55317;BME280;41178;48.956;8.130;2022-09-09T00:29:57;99298.72;;;22.11;52.17
55317;BME280;41178;48.956;8.130;2022-09-09T00:32:09;99278.53;;;23.41;49.05
55317;BME280;41178;48.956;8.130;2022-09-09T00:34:13;99284.03;;;23.51;48.91
55317;BME280;41178;48.956;8.130;2022-09-09T00:36:24;99299.13;;;23.64;48.71
55317;BME280;41178;48.956;8.130;2022-09-09T00:38:49;99356.31;;;21.49;52.68
55317;BME280;41178;48.956;8.130;2022-09-09T00:41:00;99340.19;;;21.83;52.01
55317;BME280;41178;48.956;8.130;2022-09-09T00:43:24;99288.13;;;22.43;51.90
55317;BME280;41178;48.956;8.130;2022-09-09T00:49:52;99288.63;;;20.91;54.79
55317;BME280;41178;48.956;8.130;2022-09-09T00:54:23;99294.19;;;20.96;55.04
55317;BME280;41178;48.956;8.130;2022-09-09T00:56:37;99271.72;;;21.08;54.83
55317;BME280;41178;48.956;8.130;2022-09-09T00:58:56;99273.28;;;21.49;53.87
55317;BME280;41178;48.956;8.130;2022-09-09T01:01:12;99295.25;;;21.65;52.92
55317;BME280;41178;48.956;8.130;2022-09-09T01:03:37;99279.28;;;21.97;52.97
55317;BME280;41178;48.956;8.130;2022-09-09T01:05:45;99280.41;;;21.67;53.80
55317;BME280;41178;48.956;8.130;2022-09-09T01:07:52;99307.81;;;21.59;53.27
55317;BME280;41178;48.956;8.130;2022-09-09T01:10:01;99384.16;;;20.61;54.07
55317;BME280;41178;48.956;8.130;2022-09-09T01:16:21;99287.72;;;21.67;53.25
55317;BME280;41178;48.956;8.130;2022-09-09T01:18:27;99312.03;;;20.86;55.01
55317;BME280;41178;48.956;8.130;2022-09-09T01:20:39;99319.34;;;21.26;53.96
55317;BME280;41178;48.956;8.130;2022-09-09T01:23:27;99324.03;;;20.66;55.42
55317;BME280;41178;48.956;8.130;2022-09-09T01:28:47;99307.81;;;21.30;53.87
55317;BME280;41178;48.956;8.130;2022-09-09T01:30:50;99258.75;;;21.67;54.00
55317;BME280;41178;48.956;8.130;2022-09-09T01:32:56;99266.41;;;21.87;54.22
55317;BME280;41178;48.956;8.130;2022-09-09T01:35:02;99307.16;;;21.23;55.09
55317;BME280;41178;48.956;8.130;2022-09-09T01:37:12;99260.81;;;21.03;56.21
55317;BME280;41178;48.956;8.130;2022-09-09T01:39:14;99292.84;;;20.35;57.31
55317;BME280;41178;48.956;8.130;2022-09-09T01:41:15;99275.97;;;20.09;57.89
55317;BME280;41178;48.956;8.130;2022-09-09T01:43:21;99301.16;;;19.49;58.35
55317;BME280;41178;48.956;8.130;2022-09-09T01:45:24;99301.88;;;19.86;57.32
55317;BME280;41178;48.956;8.130;2022-09-09T01:47:25;99268.66;;;19.62;58.02
55317;BME280;41178;48.956;8.130;2022-09-09T01:49:27;99319.81;;;18.83;59.41
55317;BME280;41178;48.956;8.130;2022-09-09T01:51:29;99283.72;;;18.84;60.37
55317;BME280;41178;48.956;8.130;2022-09-09T01:53:31;99231.63;;;19.81;58.34
55317;BME280;41178;48.956;8.130;2022-09-09T01:58:24;99297.78;;;19.05;59.82
55317;BME280;41178;48.956;8.130;2022-09-09T02:00:30;99250.53;;;19.51;59.48
55317;BME280;41178;48.956;8.130;2022-09-09T02:02:39;99267.59;;;19.45;59.82
55317;BME280;41178;48.956;8.130;2022-09-09T02:04:45;99271.09;;;20.30;57.54
55317;BME280;41178;48.956;8.130;2022-09-09T02:06:49;99302.59;;;19.94;57.89
55317;BME280;41178;48.956;8.130;2022-09-09T02:08:56;99303.75;;;19.74;58.54
55317;BME280;41178;48.956;8.130;2022-09-09T02:11:13;99357.88;;;19.24;59.46
55317;BME280;41178;48.956;8.130;2022-09-09T02:13:17;99280.31;;;19.98;59.49
55317;BME280;41178;48.956;8.130;2022-09-09T02:15:28;99306.00;;;19.59;60.17
55317;BME280;41178;48.956;8.130;2022-09-09T02:17:35;99243.38;;;20.22;59.24
55317;BME280;41178;48.956;8.130;2022-09-09T02:19:55;99276.19;;;19.54;60.41
55317;BME280;41178;48.956;8.130;2022-09-09T02:21:59;99254.69;;;19.77;60.05
55317;BME280;41178;48.956;8.130;2022-09-09T02:24:05;99279.22;;;19.76;59.64
55317;BME280;41178;48.956;8.130;2022-09-09T02:26:11;99263.91;;;20.00;59.20
55317;BME280;41178;48.956;8.130;2022-09-09T02:28:15;99270.22;;;19.94;58.89
55317;BME280;41178;48.956;8.130;2022-09-09T02:30:19;99301.63;;;19.46;59.63
55317;BME280;41178;48.956;8.130;2022-09-09T02:32:23;99245.94;;;20.17;58.70
55317;BME280;41178;48.956;8.130;2022-09-09T02:34:26;99281.88;;;20.30;57.73
55317;BME280;41178;48.956;8.130;2022-09-09T02:36:31;99272.47;;;20.09;59.38
55317;BME280;41178;48.956;8.130;2022-09-09T02:38:39;99235.16;;;20.93;57.39
55317;BME280;41178;48.956;8.130;2022-09-09T02:40:41;99358.41;;;19.81;58.35
55317;BME280;41178;48.956;8.130;2022-09-09T02:42:47;99334.03;;;20.54;57.10
55317;BME280;41178;48.956;8.130;2022-09-09T02:44:49;99358.31;;;19.58;59.40
55317;BME280;41178;48.956;8.130;2022-09-09T02:49:11;99347.69;;;19.44;59.20
55317;BME280;41178;48.956;8.130;2022-09-09T02:56:07;99325.28;;;19.44;59.09
55317;BME280;41178;48.956;8.130;2022-09-09T02:58:13;99303.97;;;19.73;58.50
55317;BME280;41178;48.956;8.130;2022-09-09T03:00:25;99260.28;;;20.41;57.61
55317;BME280;41178;48.956;8.130;2022-09-09T03:02:28;99310.66;;;20.36;56.34
55317;BME280;41178;48.956;8.130;2022-09-09T03:04:30;99350.69;;;19.36;58.91
55317;BME280;41178;48.956;8.130;2022-09-09T03:06:32;99324.94;;;19.52;58.55
55317;BME280;41178;48.956;8.130;2022-09-09T03:08:34;99249.31;;;20.72;57.06
55317;BME280;41178;48.956;8.130;2022-09-09T03:10:36;99299.91;;;21.12;55.16
55317;BME280;41178;48.956;8.130;2022-09-09T03:12:38;99360.63;;;19.54;58.94
55317;BME280;41178;48.956;8.130;2022-09-09T03:14:40;99326.13;;;21.40;54.24
55317;BME280;41178;48.956;8.130;2022-09-09T03:16:41;99326.75;;;20.42;57.33
55317;BME280;41178;48.956;8.130;2022-09-09T03:18:44;99383.13;;;20.74;55.03
55317;BME280;41178;48.956;8.130;2022-09-09T03:20:47;99342.22;;;20.83;55.45
55317;BME280;41178;48.956;8.130;2022-09-09T03:22:53;99411.28;;;19.15;58.59
55317;BME280;41178;48.956;8.130;2022-09-09T03:24:54;99268.00;;;21.54;54.77
55317;BME280;41178;48.956;8.130;2022-09-09T03:26:56;99329.31;;;20.96;55.37
55317;BME280;41178;48.956;8.130;2022-09-09T03:28:58;99345.06;;;20.64;55.95
55317;BME280;41178;48.956;8.130;2022-09-09T03:31:04;99347.16;;;20.27;57.12
55317;BME280;41178;48.956;8.130;2022-09-09T03:33:06;99356.72;;;20.11;57.57
55317;BME280;41178;48.956;8.130;2022-09-09T03:35:08;99326.28;;;20.46;57.11
55317;BME280;41178;48.956;8.130;2022-09-09T03:37:10;99354.56;;;20.67;55.59
55317;BME280;41178;48.956;8.130;2022-09-09T03:39:11;99362.44;;;20.02;57.35
55317;BME280;41178;48.956;8.130;2022-09-09T03:41:13;99306.81;;;21.20;55.26
55317;BME280;41178;48.956;8.130;2022-09-09T03:43:15;99307.53;;;21.15;55.25
55317;BME280;41178;48.956;8.130;2022-09-09T03:45:17;99369.59;;;20.62;55.77
55317;BME280;41178;48.956;8.130;2022-09-09T03:47:20;99358.38;;;21.30;53.79
55317;BME280;41178;48.956;8.130;2022-09-09T03:49:23;99363.25;;;20.92;54.98
55317;BME280;41178;48.956;8.130;2022-09-09T03:51:25;99321.34;;;22.22;52.34
55317;BME280;41178;48.956;8.130;2022-09-09T03:53:27;99409.25;;;20.27;56.27
55317;BME280;41178;48.956;8.130;2022-09-09T03:55:29;99389.22;;;20.58;55.92
55317;BME280;41178;48.956;8.130;2022-09-09T03:57:31;99423.78;;;20.25;55.95
55317;BME280;41178;48.956;8.130;2022-09-09T03:59:33;99440.94;;;19.33;58.19
55317;BME280;41178;48.956;8.130;2022-09-09T04:01:36;99320.53;;;21.30;54.56
55317;BME280;41178;48.956;8.130;2022-09-09T04:03:37;99359.84;;;20.97;54.83
55317;BME280;41178;48.956;8.130;2022-09-09T04:05:39;99347.50;;;20.89;55.38
55317;BME280;41178;48.956;8.130;2022-09-09T04:07:43;99350.47;;;20.64;56.25
55317;BME280;41178;48.956;8.130;2022-09-09T04:09:45;99369.03;;;20.72;55.27
55317;BME280;41178;48.956;8.130;2022-09-09T04:11:47;99383.44;;;20.42;56.12
55317;BME280;41178;48.956;8.130;2022-09-09T04:13:48;99364.19;;;21.50;53.50
55317;BME280;41178;48.956;8.130;2022-09-09T04:15:55;99337.88;;;21.46;53.97
55317;BME280;41178;48.956;8.130;2022-09-09T04:17:57;99391.53;;;20.42;56.13
55317;BME280;41178;48.956;8.130;2022-09-09T04:19:58;99345.13;;;21.16;54.86
55317;BME280;41178;48.956;8.130;2022-09-09T04:22:00;99418.25;;;20.74;54.65
55317;BME280;41178;48.956;8.130;2022-09-09T04:24:02;99430.28;;;20.06;56.19
55317;BME280;41178;48.956;8.130;2022-09-09T04:26:04;99416.66;;;20.43;55.24
55317;BME280;41178;48.956;8.130;2022-09-09T04:28:06;99365.75;;;20.82;55.31
55317;BME280;41178;48.956;8.130;2022-09-09T04:30:08;99370.41;;;21.10;54.14
55317;BME280;41178;48.956;8.130;2022-09-09T04:32:10;99381.13;;;20.16;57.53
55317;BME280;41178;48.956;8.130;2022-09-09T04:34:12;99346.44;;;21.02;55.11
55317;BME280;41178;48.956;8.130;2022-09-09T04:36:14;99347.84;;;21.16;54.74
55317;BME280;41178;48.956;8.130;2022-09-09T04:38:17;99375.00;;;20.39;56.54
55317;BME280;41178;48.956;8.130;2022-09-09T04:40:19;99334.88;;;21.59;53.76
55317;BME280;41178;48.956;8.130;2022-09-09T04:42:20;99357.22;;;21.26;54.29
55317;BME280;41178;48.956;8.130;2022-09-09T04:44:22;99395.06;;;20.90;54.76
55317;BME280;41178;48.956;8.130;2022-09-09T04:46:24;99383.34;;;21.08;54.69
55317;BME280;41178;48.956;8.130;2022-09-09T04:48:26;99452.44;;;20.69;54.15
55317;BME280;41178;48.956;8.130;2022-09-09T04:50:28;99400.97;;;20.87;55.07
55317;BME280;41178;48.956;8.130;2022-09-09T04:52:30;99349.47;;;21.58;53.87
55317;BME280;41178;48.956;8.130;2022-09-09T04:54:31;99375.16;;;22.30;51.45
55317;BME280;41178;48.956;8.130;2022-09-09T04:56:33;99495.91;;;19.51;56.92
55317;BME280;41178;48.956;8.130;2022-09-09T04:58:35;99393.00;;;20.57;56.09
55317;BME280;41178;48.956;8.130;2022-09-09T05:00:37;99392.28;;;21.09;54.38
55317;BME280;41178;48.956;8.130;2022-09-09T05:02:39;99400.84;;;21.29;54.02
55317;BME280;41178;48.956;8.130;2022-09-09T06:03:50;99395.97;;;21.84;52.43
55317;BME280;41178;48.956;8.130;2022-09-09T06:06:01;99434.00;;;21.13;53.72
55317;BME280;41178;48.956;8.130;2022-09-09T06:08:03;99449.97;;;20.91;54.36
55317;BME280;41178;48.956;8.130;2022-09-09T06:10:05;99419.75;;;21.82;52.33
55317;BME280;41178;48.956;8.130;2022-09-09T06:12:07;99430.38;;;22.29;51.38
55317;BME280;41178;48.956;8.130;2022-09-09T06:14:09;99432.53;;;22.44;51.22
55317;BME280;41178;48.956;8.130;2022-09-09T06:16:13;99474.22;;;21.21;53.09
55317;BME280;41178;48.956;8.130;2022-09-09T06:18:15;99408.72;;;22.80;50.63
55317;BME280;41178;48.956;8.130;2022-09-09T06:20:19;99423.66;;;22.99;50.11
55317;BME280;41178;48.956;8.130;2022-09-09T06:22:21;99460.53;;;22.67;50.58
55317;BME280;41178;48.956;8.130;2022-09-09T06:24:23;99509.81;;;22.06;51.19
55317;BME280;41178;48.956;8.130;2022-09-09T06:26:34;99467.41;;;22.57;51.01
55317;BME280;41178;48.956;8.130;2022-09-09T06:28:36;99468.59;;;22.61;50.74
55317;BME280;41178;48.956;8.130;2022-09-09T06:30:39;99421.00;;;22.88;51.07
55317;BME280;41178;48.956;8.130;2022-09-09T06:32:41;99454.78;;;23.14;50.31
55317;BME280;41178;48.956;8.130;2022-09-09T06:34:44;99458.66;;;23.40;49.11
55317;BME280;41178;48.956;8.130;2022-09-09T06:36:46;99518.25;;;21.69;52.47
55317;BME280;41178;48.956;8.130;2022-09-09T06:38:48;99441.13;;;22.92;51.00
55317;BME280;41178;48.956;8.130;2022-09-09T06:40:58;99459.06;;;22.93;50.63
55317;BME280;41178;48.956;8.130;2022-09-09T06:43:00;99426.59;;;23.37;49.87
55317;BME280;41178;48.956;8.130;2022-09-09T06:45:02;99442.09;;;23.42;49.47
55317;BME280;41178;48.956;8.130;2022-09-09T06:47:04;99509.19;;;21.75;53.00
55317;BME280;41178;48.956;8.130;2022-09-09T06:49:08;99418.19;;;23.55;49.80
55317;BME280;41178;48.956;8.130;2022-09-09T06:51:20;99490.72;;;22.13;51.99
55317;BME280;41178;48.956;8.130;2022-09-09T06:53:25;99467.34;;;21.95;53.18
55317;BME280;41178;48.956;8.130;2022-09-09T06:55:28;99409.41;;;23.09;50.92
55317;BME280;41178;48.956;8.130;2022-09-09T06:57:30;99432.13;;;22.86;51.61
55317;BME280;41178;48.956;8.130;2022-09-09T06:59:38;99406.22;;;23.79;49.59
55317;BME280;41178;48.956;8.130;2022-09-09T07:01:42;99519.53;;;21.90;52.34
55317;BME280;41178;48.956;8.130;2022-09-09T07:03:47;99441.88;;;22.36;52.88
55317;BME280;41178;48.956;8.130;2022-09-09T07:05:55;99448.91;;;22.20;52.76
55317;BME280;41178;48.956;8.130;2022-09-09T07:07:57;99421.41;;;23.13;50.74
55317;BME280;41178;48.956;8.130;2022-09-09T07:09:59;99487.94;;;22.24;51.44
55317;BME280;41178;48.956;8.130;2022-09-09T07:12:01;99455.59;;;22.80;50.55
55317;BME280;41178;48.956;8.130;2022-09-09T07:14:03;99454.75;;;22.00;53.33
55317;BME280;41178;48.956;8.130;2022-09-09T07:16:06;99448.63;;;21.52;54.39
55317;BME280;41178;48.956;8.130;2022-09-09T07:18:08;99403.63;;;22.67;52.42
55317;BME280;41178;48.956;8.130;2022-09-09T07:20:11;99495.94;;;21.26;54.18
55317;BME280;41178;48.956;8.130;2022-09-09T07:22:13;99414.31;;;22.39;52.55
55317;BME280;41178;48.956;8.130;2022-09-09T07:24:15;99412.66;;;22.72;51.89
55317;BME280;41178;48.956;8.130;2022-09-09T07:26:20;99394.69;;;23.22;51.24
55317;BME280;41178;48.956;8.130;2022-09-09T07:28:22;99481.06;;;21.76;53.55
55317;BME280;41178;48.956;8.130;2022-09-09T07:30:24;99485.59;;;20.99;55.49
55317;BME280;41178;48.956;8.130;2022-09-09T07:32:28;99419.00;;;22.15;53.81
55317;BME280;41178;48.956;8.130;2022-09-09T07:34:32;99386.28;;;23.24;51.67
55317;BME280;41178;48.956;8.130;2022-09-09T07:36:39;99494.41;;;21.30;54.61
55317;BME280;41178;48.956;8.130;2022-09-09T07:38:44;99382.84;;;23.28;51.29
55317;BME280;41178;48.956;8.130;2022-09-09T07:40:46;99384.59;;;23.62;50.52
55317;BME280;41178;48.956;8.130;2022-09-09T07:42:48;99397.81;;;23.36;51.36
55317;BME280;41178;48.956;8.130;2022-09-09T07:44:50;99470.03;;;22.35;52.14
55317;BME280;41178;48.956;8.130;2022-09-09T07:46:56;99425.47;;;22.94;51.71
55317;BME280;41178;48.956;8.130;2022-09-09T07:48:57;99410.69;;;23.24;51.56
55317;BME280;41178;48.956;8.130;2022-09-09T07:51:08;99474.50;;;22.92;51.43
55317;BME280;41178;48.956;8.130;2022-09-09T07:53:11;99452.31;;;22.16;53.90
55317;BME280;41178;48.956;8.130;2022-09-09T07:55:13;99375.69;;;23.93;50.18
55317;BME280;41178;48.956;8.130;2022-09-09T07:57:16;99430.41;;;23.58;50.70
55317;BME280;41178;48.956;8.130;2022-09-09T07:59:20;99485.16;;;22.82;52.35
55317;BME280;41178;48.956;8.130;2022-09-09T08:01:28;99410.13;;;23.22;51.92
55317;BME280;41178;48.956;8.130;2022-09-09T08:03:30;99409.44;;;23.31;52.02
55317;BME280;41178;48.956;8.130;2022-09-09T08:05:32;99490.78;;;22.92;52.08
55317;BME280;41178;48.956;8.130;2022-09-09T08:07:34;99460.25;;;23.19;51.65
55317;BME280;41178;48.956;8.130;2022-09-09T08:09:36;99531.94;;;22.03;52.58
55317;BME280;41178;48.956;8.130;2022-09-09T08:11:39;99428.34;;;23.26;52.29
55317;BME280;41178;48.956;8.130;2022-09-09T08:13:42;99504.16;;;22.07;53.78
55317;BME280;41178;48.956;8.130;2022-09-09T08:15:45;99441.00;;;23.60;51.48
55317;BME280;41178;48.956;8.130;2022-09-09T08:17:47;99478.38;;;22.79;53.16
55317;BME280;41178;48.956;8.130;2022-09-09T08:19:48;99413.84;;;23.82;51.17
55317;BME280;41178;48.956;8.130;2022-09-09T08:21:50;99497.44;;;23.01;53.27
55317;BME280;41178;48.956;8.130;2022-09-09T08:23:52;99457.78;;;23.79;51.09
55317;BME280;41178;48.956;8.130;2022-09-09T08:26:18;99415.97;;;24.66;49.82
55317;BME280;41178;48.956;8.130;2022-09-09T08:28:24;99502.19;;;23.67;51.18
55317;BME280;41178;48.956;8.130;2022-09-09T08:30:26;99489.66;;;23.88;51.18
55317;BME280;41178;48.956;8.130;2022-09-09T08:32:28;99507.09;;;23.70;51.06
55317;BME280;41178;48.956;8.130;2022-09-09T08:34:29;99505.22;;;23.71;51.00
55317;BME280;41178;48.956;8.130;2022-09-09T08:36:35;99535.53;;;22.78;52.83
55317;BME280;41178;48.956;8.130;2022-09-09T08:38:38;99515.81;;;23.16;52.32
55317;BME280;41178;48.956;8.130;2022-09-09T08:40:43;99465.56;;;23.70;51.63
55317;BME280;41178;48.956;8.130;2022-09-09T08:42:52;99492.56;;;22.53;54.00
55317;BME280;41178;48.956;8.130;2022-09-09T08:45:03;99531.84;;;22.38;53.57
55317;BME280;41178;48.956;8.130;2022-09-09T08:52:11;99478.28;;;22.91;53.72
55317;BME280;41178;48.956;8.130;2022-09-09T08:54:14;99496.34;;;21.82;55.78
55317;BME280;41178;48.956;8.130;2022-09-09T08:56:36;99459.13;;;22.81;54.62
55317;BME280;41178;48.956;8.130;2022-09-09T08:58:45;99392.88;;;24.26;51.63
55317;BME280;41178;48.956;8.130;2022-09-09T09:07:51;99498.03;;;22.12;55.14
55317;BME280;41178;48.956;8.130;2022-09-09T09:10:12;99435.25;;;22.95;53.25
55317;BME280;41178;48.956;8.130;2022-09-09T09:12:40;99507.84;;;22.30;53.40
55317;BME280;41178;48.956;8.130;2022-09-09T09:14:44;99404.00;;;23.53;51.67
55317;BME280;41178;48.956;8.130;2022-09-09T09:17:07;99482.38;;;22.77;52.34
55317;BME280;41178;48.956;8.130;2022-09-09T09:19:14;99449.72;;;23.62;51.04
55317;BME280;41178;48.956;8.130;2022-09-09T09:24:15;99456.75;;;24.07;50.23
55317;BME280;41178;48.956;8.130;2022-09-09T09:26:09;99482.47;;;23.99;50.31
55317;BME280;41178;48.956;8.130;2022-09-09T09:28:17;99515.19;;;22.46;52.42
55317;BME280;41178;48.956;8.130;2022-09-09T09:30:22;99473.41;;;23.49;51.32
55317;BME280;41178;48.956;8.130;2022-09-09T09:32:33;99472.44;;;23.78;50.40
55317;BME280;41178;48.956;8.130;2022-09-09T09:34:36;99489.00;;;22.52;52.23
55317;BME280;41178;48.956;8.130;2022-09-09T09:36:41;99421.38;;;24.02;49.46
55317;BME280;41178;48.956;8.130;2022-09-09T09:38:56;99414.88;;;24.62;48.69
55317;BME280;41178;48.956;8.130;2022-09-09T09:41:29;99496.69;;;23.84;49.08
55317;BME280;41178;48.956;8.130;2022-09-09T09:43:33;99490.44;;;23.62;48.95
55317;BME280;41178;48.956;8.130;2022-09-09T09:45:42;99533.44;;;22.97;50.01
55317;BME280;41178;48.956;8.130;2022-09-09T09:48:09;99447.66;;;24.50;48.30
55317;BME280;41178;48.956;8.130;2022-09-09T09:50:19;99461.53;;;24.22;48.04
55317;BME280;41178;48.956;8.130;2022-09-09T09:52:23;99494.47;;;23.81;49.20
55317;BME280;41178;48.956;8.130;2022-09-09T09:54:29;99510.97;;;22.68;50.80
55317;BME280;41178;48.956;8.130;2022-09-09T09:56:31;99470.28;;;24.02;49.00
55317;BME280;41178;48.956;8.130;2022-09-09T09:58:49;99453.16;;;24.56;47.99
55317;BME280;41178;48.956;8.130;2022-09-09T10:00:53;99487.09;;;23.76;49.48
55317;BME280;41178;48.956;8.130;2022-09-09T10:02:55;99516.75;;;23.61;48.51
55317;BME280;41178;48.956;8.130;2022-09-09T10:05:03;99461.97;;;24.41;48.05
55317;BME280;41178;48.956;8.130;2022-09-09T10:07:13;99538.44;;;23.05;49.76
55317;BME280;41178;48.956;8.130;2022-09-09T10:09:29;99461.78;;;24.47;47.65
55317;BME280;41178;48.956;8.130;2022-09-09T10:14:28;99525.28;;;23.14;49.17
55317;BME280;41178;48.956;8.130;2022-09-09T10:19:03;99415.25;;;24.76;47.28
55317;BME280;41178;48.956;8.130;2022-09-09T10:23:49;99403.28;;;25.88;45.46
55317;BME280;41178;48.956;8.130;2022-09-09T10:32:24;99465.09;;;24.00;46.68
55317;BME280;41178;48.956;8.130;2022-09-09T10:34:58;99459.44;;;24.29;46.28
55317;BME280;41178;48.956;8.130;2022-09-09T10:37:16;99448.44;;;24.46;45.42
55317;BME280;41178;48.956;8.130;2022-09-09T10:39:50;99432.22;;;24.89;46.17
55317;BME280;41178;48.956;8.130;2022-09-09T10:42:04;99458.91;;;24.97;44.89
55317;BME280;41178;48.956;8.130;2022-09-09T10:44:15;99463.59;;;25.07;44.10
55317;BME280;41178;48.956;8.130;2022-09-09T10:56:01;99492.16;;;23.68;45.79
55317;BME280;41178;48.956;8.130;2022-09-09T10:58:14;99439.72;;;24.76;44.15
55317;BME280;41178;48.956;8.130;2022-09-09T11:03:26;99394.94;;;22.48;48.20
55317;BME280;41178;48.956;8.130;2022-09-09T11:05:46;99362.69;;;23.24;47.05
55317;BME280;41178;48.956;8.130;2022-09-09T11:08:09;99363.38;;;23.58;47.20
55317;BME280;41178;48.956;8.130;2022-09-09T11:10:23;99377.50;;;22.77;47.90
55317;BME280;41178;48.956;8.130;2022-09-09T11:12:27;99427.22;;;22.20;47.41
55317;BME280;41178;48.956;8.130;2022-09-09T11:16:42;99348.78;;;24.19;45.87
55317;BME280;41178;48.956;8.130;2022-09-09T11:18:47;99418.59;;;23.69;45.49
55317;BME280;41178;48.956;8.130;2022-09-09T11:20:58;99403.72;;;23.99;45.65
55317;BME280;41178;48.956;8.130;2022-09-09T11:23:13;99451.69;;;23.27;45.75
55317;BME280;41178;48.956;8.130;2022-09-09T11:25:26;99395.66;;;23.82;45.83
55317;BME280;41178;48.956;8.130;2022-09-09T11:42:18;99377.38;;;23.72;46.52
55317;BME280;41178;48.956;8.130;2022-09-09T11:44:27;99410.09;;;23.61;45.15
55317;BME280;41178;48.956;8.130;2022-09-09T11:46:36;99369.69;;;24.19;44.50
55317;BME280;41178;48.956;8.130;2022-09-09T11:48:41;99406.75;;;24.03;44.83
55317;BME280;41178;48.956;8.130;2022-09-09T11:51:02;99390.22;;;22.94;46.55
55317;BME280;41178;48.956;8.130;2022-09-09T11:53:19;99358.00;;;23.19;48.23
55317;BME280;41178;48.956;8.130;2022-09-09T11:55:28;99329.25;;;24.22;47.84
55317;BME280;41178;48.956;8.130;2022-09-09T11:57:35;99349.41;;;23.72;48.94
55317;BME280;41178;48.956;8.130;2022-09-09T11:59:37;99332.88;;;23.51;49.36
55317;BME280;41178;48.956;8.130;2022-09-09T12:01:41;99325.97;;;23.16;49.86
55317;BME280;41178;48.956;8.130;2022-09-09T12:03:49;99328.63;;;23.83;48.38
55317;BME280;41178;48.956;8.130;2022-09-09T12:05:53;99367.78;;;22.98;48.63
55317;BME280;41178;48.956;8.130;2022-09-09T12:07:57;99351.69;;;22.53;49.73
55317;BME280;41178;48.956;8.130;2022-09-09T12:10:04;99325.16;;;23.38;48.75
55317;BME280;41178;48.956;8.130;2022-09-09T12:14:54;99330.03;;;23.14;50.69
55317;BME280;41178;48.956;8.130;2022-09-09T12:16:56;99369.47;;;22.49;52.97
55317;BME280;41178;48.956;8.130;2022-09-09T12:23:50;99275.13;;;25.11;49.08
55317;BME280;41178;48.956;8.130;2022-09-09T12:28:20;99360.50;;;25.78;48.19
55317;BME280;41178;48.956;8.130;2022-09-09T12:30:29;99356.75;;;26.21;47.00
55317;BME280;41178;48.956;8.130;2022-09-09T12:32:33;99389.34;;;25.74;49.74
55317;BME280;41178;48.956;8.130;2022-09-09T12:34:42;99359.78;;;25.25;51.20
55317;BME280;41178;48.956;8.130;2022-09-09T12:36:55;99413.78;;;23.32;51.63
55317;BME280;41178;48.956;8.130;2022-09-09T12:39:22;99341.63;;;24.08;51.34
55317;BME280;41178;48.956;8.130;2022-09-09T12:41:27;99335.88;;;24.04;49.74
55317;BME280;41178;48.956;8.130;2022-09-09T12:43:30;99379.16;;;23.39;48.03
55317;BME280;41178;48.956;8.130;2022-09-09T12:45:32;99360.00;;;24.28;47.59
55317;BME280;41178;48.956;8.130;2022-09-09T12:49:48;99377.81;;;24.51;47.17
55317;BME280;41178;48.956;8.130;2022-09-09T12:51:51;99416.63;;;23.87;48.60
55317;BME280;41178;48.956;8.130;2022-09-09T12:53:54;99368.56;;;24.84;48.03
55317;BME280;41178;48.956;8.130;2022-09-09T12:56:06;99365.19;;;25.15;47.45
55317;BME280;41178;48.956;8.130;2022-09-09T12:58:13;99343.97;;;25.22;47.79
55317;BME280;41178;48.956;8.130;2022-09-09T13:00:21;99397.06;;;24.77;47.44
55317;BME280;41178;48.956;8.130;2022-09-09T13:02:27;99383.84;;;24.96;47.77
55317;BME280;41178;48.956;8.130;2022-09-09T13:04:31;99362.91;;;25.54;46.20
55317;BME280;41178;48.956;8.130;2022-09-09T13:06:33;99397.16;;;24.92;47.72
55317;BME280;41178;48.956;8.130;2022-09-09T13:08:35;99343.91;;;25.90;46.31
55317;BME280;41178;48.956;8.130;2022-09-09T13:10:41;99364.78;;;25.44;48.16
55317;BME280;41178;48.956;8.130;2022-09-09T13:12:55;99365.19;;;25.20;48.04
55317;BME280;41178;48.956;8.130;2022-09-09T13:14:59;99335.19;;;25.73;47.77
55317;BME280;41178;48.956;8.130;2022-09-09T13:17:03;99349.34;;;25.85;48.70
55317;BME280;41178;48.956;8.130;2022-09-09T13:19:14;99350.50;;;25.16;47.55
55317;BME280;41178;48.956;8.130;2022-09-09T13:21:16;99338.72;;;25.78;46.33
55317;BME280;41178;48.956;8.130;2022-09-09T13:23:20;99330.28;;;25.90;46.06
55317;BME280;41178;48.956;8.130;2022-09-09T13:25:25;99362.09;;;25.64;46.75
55317;BME280;41178;48.956;8.130;2022-09-09T13:27:30;99362.03;;;25.38;46.10
55317;BME280;41178;48.956;8.130;2022-09-09T13:29:33;99387.88;;;24.88;46.86
55317;BME280;41178;48.956;8.130;2022-09-09T13:31:36;99348.09;;;25.24;46.23
55317;BME280;41178;48.956;8.130;2022-09-09T13:33:39;99361.25;;;24.90;45.50
55317;BME280;41178;48.956;8.130;2022-09-09T13:35:57;99375.63;;;24.80;45.01
55317;BME280;41178;48.956;8.130;2022-09-09T13:38:07;99345.19;;;25.47;45.06
55317;BME280;41178;48.956;8.130;2022-09-09T13:40:18;99374.97;;;24.73;45.50
55317;BME280;41178;48.956;8.130;2022-09-09T13:42:25;99378.13;;;24.92;45.70
55317;BME280;41178;48.956;8.130;2022-09-09T13:44:30;99364.78;;;24.91;46.55
55317;BME280;41178;48.956;8.130;2022-09-09T13:46:40;99391.47;;;24.61;46.87
55317;BME280;41178;48.956;8.130;2022-09-09T13:48:42;99374.38;;;24.61;46.27
55317;BME280;41178;48.956;8.130;2022-09-09T13:50:56;99322.72;;;25.14;46.59
55317;BME280;41178;48.956;8.130;2022-09-09T13:52:58;99328.94;;;24.99;46.27
55317;BME280;41178;48.956;8.130;2022-09-09T13:55:00;99345.59;;;24.65;46.63